sensor_id;sensor_type;location;lat;lon;timestamp;temperature;humidity
20370;DHT22;10344;47.592;9.600;2023-04-06T00:08:49;2.20;99.90
20370;DHT22;10344;47.592;9.600;2023-04-06T00:37:40;2.50;99.90
20370;DHT22;10344;47.592;9.600;2023-04-06T00:47:07;2.50;99.90
20370;DHT22;10344;47.592;9.600;2023-04-06T00:50:08;2.60;99.90
20370;DHT22;10344;47.592;9.600;2023-04-06T00:53:59;2.50;99.90
20370;DHT22;10344;47.592;9.600;2023-04-06T00:56:34;2.40;99.90
20370;DHT22;10344;47.592;9.600;2023-04-06T00:59:40;2.40;99.90
20370;DHT22;10344;47.592;9.600;2023-04-06T01:02:15;2.30;99.90
20370;DHT22;10344;47.592;9.600;2023-04-06T01:05:02;2.30;99.90
20370;DHT22;10344;47.592;9.600;2023-04-06T01:07:34;2.30;99.90
20370;DHT22;10344;47.592;9.600;2023-04-06T01:10:30;2.30;99.90
20370;DHT22;10344;47.592;9.600;2023-04-06T01:16:58;2.30;99.90
20370;DHT22;10344;47.592;9.600;2023-04-06T01:19:26;2.40;99.90
20370;DHT22;10344;47.592;9.600;2023-04-06T01:21:54;2.30;99.90
20370;DHT22;10344;47.592;9.600;2023-04-06T01:24:22;2.40;99.90
20370;DHT22;10344;47.592;9.600;2023-04-06T01:30:11;2.40;99.90
20370;DHT22;10344;47.592;9.600;2023-04-06T01:32:37;2.50;99.90
20370;DHT22;10344;47.592;9.600;2023-04-06T01:35:03;2.60;99.90
20370;DHT22;10344;47.592;9.600;2023-04-06T01:37:36;2.60;99.90
20370;DHT22;10344;47.592;9.600;2023-04-06T01:40:02;2.60;99.90
20370;DHT22;10344;47.592;9.600;2023-04-06T01:42:31;2.60;99.90
20370;DHT22;10344;47.592;9.600;2023-04-06T01:49:18;2.60;99.90
20370;DHT22;10344;47.592;9.600;2023-04-06T01:55:55;2.60;99.90
20370;DHT22;10344;47.592;9.600;2023-04-06T02:02:27;2.60;99.90
20370;DHT22;10344;47.592;9.600;2023-04-06T02:04:55;2.70;99.90
20370;DHT22;10344;47.592;9.600;2023-04-06T02:07:23;2.70;99.90
20370;DHT22;10344;47.592;9.600;2023-04-06T02:09:54;2.60;99.90
20370;DHT22;10344;47.592;9.600;2023-04-06T02:12:21;2.60;99.90
20370;DHT22;10344;47.592;9.600;2023-04-06T02:14:46;2.50;99.90
20370;DHT22;10344;47.592;9.600;2023-04-06T02:17:13;2.50;99.90
20370;DHT22;10344;47.592;9.600;2023-04-06T02:19:39;2.50;99.90
20370;DHT22;10344;47.592;9.600;2023-04-06T02:22:29;2.50;99.90
20370;DHT22;10344;47.592;9.600;2023-04-06T06:45:48;4.20;99.90
20370;DHT22;10344;47.592;9.600;2023-04-06T06:54:45;4.90;99.90
20370;DHT22;10344;47.592;9.600;2023-04-06T06:57:10;6.20;99.90
20370;DHT22;10344;47.592;9.600;2023-04-06T06:59:36;7.60;99.90
20370;DHT22;10344;47.592;9.600;2023-04-06T07:02:01;8.90;99.90
20370;DHT22;10344;47.592;9.600;2023-04-06T07:04:32;9.90;99.90
20370;DHT22;10344;47.592;9.600;2023-04-06T07:06:57;10.60;99.90
20370;DHT22;10344;47.592;9.600;2023-04-06T07:09:23;11.50;99.90
20370;DHT22;10344;47.592;9.600;2023-04-06T07:11:54;12.50;99.90
20370;DHT22;10344;47.592;9.600;2023-04-06T07:14:22;13.30;99.90
20370;DHT22;10344;47.592;9.600;2023-04-06T07:16:48;13.80;99.90
20370;DHT22;10344;47.592;9.600;2023-04-06T07:19:15;14.40;99.90
20370;DHT22;10344;47.592;9.600;2023-04-06T07:21:42;14.80;99.90
20370;DHT22;10344;47.592;9.600;2023-04-06T07:24:10;14.60;98.30
20370;DHT22;10344;47.592;9.600;2023-04-06T07:26:36;14.80;96.90
20370;DHT22;10344;47.592;9.600;2023-04-06T07:29:03;15.00;97.00
20370;DHT22;10344;47.592;9.600;2023-04-06T07:31:29;15.30;97.20
20370;DHT22;10344;47.592;9.600;2023-04-06T07:34:01;15.70;95.80
20370;DHT22;10344;47.592;9.600;2023-04-06T07:36:26;16.50;93.60
20370;DHT22;10344;47.592;9.600;2023-04-06T07:38:52;16.70;93.00
20370;DHT22;10344;47.592;9.600;2023-04-06T07:41:20;16.60;91.70
20370;DHT22;10344;47.592;9.600;2023-04-06T07:43:46;16.60;90.80
20370;DHT22;10344;47.592;9.600;2023-04-06T07:46:14;16.10;90.30
20370;DHT22;10344;47.592;9.600;2023-04-06T07:48:39;16.00;90.70
20370;DHT22;10344;47.592;9.600;2023-04-06T07:51:08;16.50;89.80
20370;DHT22;10344;47.592;9.600;2023-04-06T07:53:35;17.10;88.60
20370;DHT22;10344;47.592;9.600;2023-04-06T07:56:04;17.20;92.00
20370;DHT22;10344;47.592;9.600;2023-04-06T07:58:33;17.90;90.80
20370;DHT22;10344;47.592;9.600;2023-04-06T08:01:05;18.30;90.50
20370;DHT22;10344;47.592;9.600;2023-04-06T08:03:33;18.30;90.50
20370;DHT22;10344;47.592;9.600;2023-04-06T08:06:04;18.00;90.50
20370;DHT22;10344;47.592;9.600;2023-04-06T08:08:33;18.00;91.00
20370;DHT22;10344;47.592;9.600;2023-04-06T08:11:01;18.10;90.30
20370;DHT22;10344;47.592;9.600;2023-04-06T08:13:30;17.70;90.30
20370;DHT22;10344;47.592;9.600;2023-04-06T08:15:59;17.40;92.00
20370;DHT22;10344;47.592;9.600;2023-04-06T08:18:25;17.70;90.90
20370;DHT22;10344;47.592;9.600;2023-04-06T08:20:59;17.60;90.70
20370;DHT22;10344;47.592;9.600;2023-04-06T08:23:24;17.10;91.70
20370;DHT22;10344;47.592;9.600;2023-04-06T08:25:50;17.50;91.20
20370;DHT22;10344;47.592;9.600;2023-04-06T08:28:19;18.20;91.80
20370;DHT22;10344;47.592;9.600;2023-04-06T08:30:45;18.80;92.30
20370;DHT22;10344;47.592;9.600;2023-04-06T08:33:13;19.00;91.50
20370;DHT22;10344;47.592;9.600;2023-04-06T08:35:41;18.90;90.30
20370;DHT22;10344;47.592;9.600;2023-04-06T08:38:07;18.20;89.90
20370;DHT22;10344;47.592;9.600;2023-04-06T08:40:38;17.30;90.60
20370;DHT22;10344;47.592;9.600;2023-04-06T08:43:09;16.80;91.00
20370;DHT22;10344;47.592;9.600;2023-04-06T08:45:45;16.30;91.90
20370;DHT22;10344;47.592;9.600;2023-04-06T08:48:11;17.00;92.80
20370;DHT22;10344;47.592;9.600;2023-04-06T08:50:38;17.70;92.20
20370;DHT22;10344;47.592;9.600;2023-04-06T08:53:07;18.30;91.30
20370;DHT22;10344;47.592;9.600;2023-04-06T08:55:33;18.60;88.30
20370;DHT22;10344;47.592;9.600;2023-04-06T08:58:04;18.10;88.60
20370;DHT22;10344;47.592;9.600;2023-04-06T09:00:39;18.10;91.20
20370;DHT22;10344;47.592;9.600;2023-04-06T09:03:10;18.20;90.30
20370;DHT22;10344;47.592;9.600;2023-04-06T09:05:40;17.40;88.50
20370;DHT22;10344;47.592;9.600;2023-04-06T09:08:05;16.80;90.30
20370;DHT22;10344;47.592;9.600;2023-04-06T09:10:32;16.80;90.00
20370;DHT22;10344;47.592;9.600;2023-04-06T09:13:07;17.20;89.10
20370;DHT22;10344;47.592;9.600;2023-04-06T09:15:39;17.60;89.80
20370;DHT22;10344;47.592;9.600;2023-04-06T09:18:09;17.90;88.30
20370;DHT22;10344;47.592;9.600;2023-04-06T09:20:35;18.30;86.70
20370;DHT22;10344;47.592;9.600;2023-04-06T09:23:06;18.30;86.50
20370;DHT22;10344;47.592;9.600;2023-04-06T09:25:45;17.70;86.20
20370;DHT22;10344;47.592;9.600;2023-04-06T09:28:13;17.30;87.20
20370;DHT22;10344;47.592;9.600;2023-04-06T09:30:48;17.20;87.90
20370;DHT22;10344;47.592;9.600;2023-04-06T09:33:23;17.20;89.50
20370;DHT22;10344;47.592;9.600;2023-04-06T09:36:07;17.10;86.10
20370;DHT22;10344;47.592;9.600;2023-04-06T09:38:55;17.40;91.90
20370;DHT22;10344;47.592;9.600;2023-04-06T09:41:31;17.80;87.00
20370;DHT22;10344;47.592;9.600;2023-04-06T09:44:12;17.50;86.90
20370;DHT22;10344;47.592;9.600;2023-04-06T09:46:40;17.80;89.30
20370;DHT22;10344;47.592;9.600;2023-04-06T09:49:12;17.80;87.40
20370;DHT22;10344;47.592;9.600;2023-04-06T09:51:40;17.00;91.70
20370;DHT22;10344;47.592;9.600;2023-04-06T09:54:11;17.10;90.80
20370;DHT22;10344;47.592;9.600;2023-04-06T10:02:16;17.40;91.20
20370;DHT22;10344;47.592;9.600;2023-04-06T10:05:05;17.70;89.90
20370;DHT22;10344;47.592;9.600;2023-04-06T10:07:36;18.10;89.30
20370;DHT22;10344;47.592;9.600;2023-04-06T10:10:07;18.00;89.80
20370;DHT22;10344;47.592;9.600;2023-04-06T10:12:37;17.50;90.40
20370;DHT22;10344;47.592;9.600;2023-04-06T10:15:03;17.50;92.50
20370;DHT22;10344;47.592;9.600;2023-04-06T10:17:29;17.60;88.80
20370;DHT22;10344;47.592;9.600;2023-04-06T10:20:13;17.60;87.90
20370;DHT22;10344;47.592;9.600;2023-04-06T10:23:13;17.40;89.50
20370;DHT22;10344;47.592;9.600;2023-04-06T10:25:55;16.20;90.40
20370;DHT22;10344;47.592;9.600;2023-04-06T10:28:30;14.80;92.30
20370;DHT22;10344;47.592;9.600;2023-04-06T10:31:04;13.80;93.70
20370;DHT22;10344;47.592;9.600;2023-04-06T10:33:30;12.90;95.40
20370;DHT22;10344;47.592;9.600;2023-04-06T10:35:56;12.30;96.00
20370;DHT22;10344;47.592;9.600;2023-04-06T10:38:40;12.10;96.90
20370;DHT22;10344;47.592;9.600;2023-04-06T10:41:12;12.10;96.20
20370;DHT22;10344;47.592;9.600;2023-04-06T10:43:41;12.10;98.30
20370;DHT22;10344;47.592;9.600;2023-04-06T10:46:12;12.30;98.00
20370;DHT22;10344;47.592;9.600;2023-04-06T10:48:42;12.70;96.90
20370;DHT22;10344;47.592;9.600;2023-04-06T10:51:14;13.00;99.20
20370;DHT22;10344;47.592;9.600;2023-04-06T10:53:42;13.40;97.60
20370;DHT22;10344;47.592;9.600;2023-04-06T10:56:15;14.20;96.20
20370;DHT22;10344;47.592;9.600;2023-04-06T10:58:52;14.60;95.20
20370;DHT22;10344;47.592;9.600;2023-04-06T11:01:27;14.70;95.00
20370;DHT22;10344;47.592;9.600;2023-04-06T11:03:57;14.70;94.40
20370;DHT22;10344;47.592;9.600;2023-04-06T11:06:28;14.90;94.90
20370;DHT22;10344;47.592;9.600;2023-04-06T11:08:55;14.80;93.80
20370;DHT22;10344;47.592;9.600;2023-04-06T11:11:29;14.70;94.00
20370;DHT22;10344;47.592;9.600;2023-04-06T11:14:02;14.70;95.30
20370;DHT22;10344;47.592;9.600;2023-04-06T11:16:33;14.90;93.60
20370;DHT22;10344;47.592;9.600;2023-04-06T11:19:04;15.00;94.20
20370;DHT22;10344;47.592;9.600;2023-04-06T11:21:38;15.30;92.30
20370;DHT22;10344;47.592;9.600;2023-04-06T11:24:12;15.40;90.80
20370;DHT22;10344;47.592;9.600;2023-04-06T11:26:57;14.90;93.30
20370;DHT22;10344;47.592;9.600;2023-04-06T11:29:29;14.70;90.40
20370;DHT22;10344;47.592;9.600;2023-04-06T11:34:32;14.60;93.30
20370;DHT22;10344;47.592;9.600;2023-04-06T11:37:00;15.10;90.70
20370;DHT22;10344;47.592;9.600;2023-04-06T11:39:37;15.30;91.60
20370;DHT22;10344;47.592;9.600;2023-04-06T11:42:06;15.50;87.90
20370;DHT22;10344;47.592;9.600;2023-04-06T11:44:37;15.60;89.20
20370;DHT22;10344;47.592;9.600;2023-04-06T11:47:19;15.60;79.30
20370;DHT22;10344;47.592;9.600;2023-04-06T11:49:45;15.70;82.50
20370;DHT22;10344;47.592;9.600;2023-04-06T11:54:45;15.70;76.80
20370;DHT22;10344;47.592;9.600;2023-04-06T11:57:11;15.60;77.50
20370;DHT22;10344;47.592;9.600;2023-04-06T11:59:36;15.90;79.60
20370;DHT22;10344;47.592;9.600;2023-04-06T12:02:10;15.80;76.90
20370;DHT22;10344;47.592;9.600;2023-04-06T12:04:41;15.90;78.90
20370;DHT22;10344;47.592;9.600;2023-04-06T12:07:07;16.00;74.00
20370;DHT22;10344;47.592;9.600;2023-04-06T12:09:38;15.90;76.50
20370;DHT22;10344;47.592;9.600;2023-04-06T12:12:06;15.70;74.70
20370;DHT22;10344;47.592;9.600;2023-04-06T12:14:35;15.40;76.60
20370;DHT22;10344;47.592;9.600;2023-04-06T12:17:11;15.40;76.50
20370;DHT22;10344;47.592;9.600;2023-04-06T12:19:38;15.30;76.10
20370;DHT22;10344;47.592;9.600;2023-04-06T12:22:06;15.60;74.80
20370;DHT22;10344;47.592;9.600;2023-04-06T12:24:34;15.60;74.90
20370;DHT22;10344;47.592;9.600;2023-04-06T12:27:02;15.60;75.20
20370;DHT22;10344;47.592;9.600;2023-04-06T12:29:30;15.50;73.90
20370;DHT22;10344;47.592;9.600;2023-04-06T12:31:56;15.40;73.00
20370;DHT22;10344;47.592;9.600;2023-04-06T12:34:21;15.20;73.10
20370;DHT22;10344;47.592;9.600;2023-04-06T12:36:49;15.10;75.90
20370;DHT22;10344;47.592;9.600;2023-04-06T12:39:18;15.10;74.10
20370;DHT22;10344;47.592;9.600;2023-04-06T12:41:44;15.20;72.70
20370;DHT22;10344;47.592;9.600;2023-04-06T12:44:19;14.90;74.50
20370;DHT22;10344;47.592;9.600;2023-04-06T12:46:50;14.80;77.10
20370;DHT22;10344;47.592;9.600;2023-04-06T12:49:16;15.10;76.70
20370;DHT22;10344;47.592;9.600;2023-04-06T12:51:44;15.50;73.90
20370;DHT22;10344;47.592;9.600;2023-04-06T12:54:09;15.40;74.80
20370;DHT22;10344;47.592;9.600;2023-04-06T12:56:37;15.40;77.90
20370;DHT22;10344;47.592;9.600;2023-04-06T12:59:09;15.10;72.60
20370;DHT22;10344;47.592;9.600;2023-04-06T13:01:35;14.70;76.70
20370;DHT22;10344;47.592;9.600;2023-04-06T13:04:08;14.90;78.30
20370;DHT22;10344;47.592;9.600;2023-04-06T13:06:33;15.20;79.20
20370;DHT22;10344;47.592;9.600;2023-04-06T13:08:59;15.50;79.30
20370;DHT22;10344;47.592;9.600;2023-04-06T13:11:29;15.70;77.30
20370;DHT22;10344;47.592;9.600;2023-04-06T13:14:01;15.60;75.80
20370;DHT22;10344;47.592;9.600;2023-04-06T13:16:36;15.60;77.10
20370;DHT22;10344;47.592;9.600;2023-04-06T13:19:12;15.40;76.30
20370;DHT22;10344;47.592;9.600;2023-04-06T13:21:40;15.20;76.60
20370;DHT22;10344;47.592;9.600;2023-04-06T13:24:06;15.10;78.00
20370;DHT22;10344;47.592;9.600;2023-04-06T13:26:34;15.30;82.50
20370;DHT22;10344;47.592;9.600;2023-04-06T13:29:06;15.70;76.00
20370;DHT22;10344;47.592;9.600;2023-04-06T13:31:32;15.40;77.20
20370;DHT22;10344;47.592;9.600;2023-04-06T13:33:58;14.80;77.00
20370;DHT22;10344;47.592;9.600;2023-04-06T13:36:24;14.30;77.60
20370;DHT22;10344;47.592;9.600;2023-04-06T13:38:54;14.20;80.00
20370;DHT22;10344;47.592;9.600;2023-04-06T13:41:28;14.40;78.10
20370;DHT22;10344;47.592;9.600;2023-04-06T13:43:54;14.60;76.30
20370;DHT22;10344;47.592;9.600;2023-04-06T13:46:23;14.50;77.40
20370;DHT22;10344;47.592;9.600;2023-04-06T13:48:50;14.40;79.30
20370;DHT22;10344;47.592;9.600;2023-04-06T13:51:16;14.50;79.70
20370;DHT22;10344;47.592;9.600;2023-04-06T13:53:42;14.20;78.70
20370;DHT22;10344;47.592;9.600;2023-04-06T13:56:12;14.00;77.20
20370;DHT22;10344;47.592;9.600;2023-04-06T13:58:45;13.90;79.60
20370;DHT22;10344;47.592;9.600;2023-04-06T14:01:11;13.90;78.80
20370;DHT22;10344;47.592;9.600;2023-04-06T14:03:39;14.10;80.20
20370;DHT22;10344;47.592;9.600;2023-04-06T14:06:13;14.40;78.60
20370;DHT22;10344;47.592;9.600;2023-04-06T14:08:47;14.60;81.00
20370;DHT22;10344;47.592;9.600;2023-04-06T14:11:13;14.80;79.60
20370;DHT22;10344;47.592;9.600;2023-04-06T14:13:39;14.80;77.90
20370;DHT22;10344;47.592;9.600;2023-04-06T14:16:07;15.00;83.70
20370;DHT22;10344;47.592;9.600;2023-04-06T14:18:41;15.10;79.20
20370;DHT22;10344;47.592;9.600;2023-04-06T14:21:07;14.90;80.40
20370;DHT22;10344;47.592;9.600;2023-04-06T14:23:41;14.90;81.00
20370;DHT22;10344;47.592;9.600;2023-04-06T14:26:08;15.00;79.90
20370;DHT22;10344;47.592;9.600;2023-04-06T14:28:35;14.90;79.70
20370;DHT22;10344;47.592;9.600;2023-04-06T14:31:12;14.60;81.00
20370;DHT22;10344;47.592;9.600;2023-04-06T14:33:39;14.60;82.10
20370;DHT22;10344;47.592;9.600;2023-04-06T14:36:06;14.50;80.50
20370;DHT22;10344;47.592;9.600;2023-04-06T14:38:32;14.20;82.40
20370;DHT22;10344;47.592;9.600;2023-04-06T14:40:57;14.10;84.60
20370;DHT22;10344;47.592;9.600;2023-04-06T14:43:23;14.10;83.40
20370;DHT22;10344;47.592;9.600;2023-04-06T14:45:59;14.30;82.70
20370;DHT22;10344;47.592;9.600;2023-04-06T14:48:24;14.40;83.40
20370;DHT22;10344;47.592;9.600;2023-04-06T14:50:56;14.40;83.50
20370;DHT22;10344;47.592;9.600;2023-04-06T14:53:23;14.50;85.50
20370;DHT22;10344;47.592;9.600;2023-04-06T14:55:49;14.70;83.10
20370;DHT22;10344;47.592;9.600;2023-04-06T14:58:20;14.70;82.00
20370;DHT22;10344;47.592;9.600;2023-04-06T15:00:46;14.50;84.20
20370;DHT22;10344;47.592;9.600;2023-04-06T15:03:12;14.40;85.80
20370;DHT22;10344;47.592;9.600;2023-04-06T15:05:40;14.00;87.70
20370;DHT22;10344;47.592;9.600;2023-04-06T15:08:06;13.50;88.90
20370;DHT22;10344;47.592;9.600;2023-04-06T15:10:37;13.20;87.40
20370;DHT22;10344;47.592;9.600;2023-04-06T15:13:02;13.30;87.20
20370;DHT22;10344;47.592;9.600;2023-04-06T15:15:38;13.50;88.20
20370;DHT22;10344;47.592;9.600;2023-04-06T15:18:06;13.70;87.60
20370;DHT22;10344;47.592;9.600;2023-04-06T15:20:32;14.10;88.10
20370;DHT22;10344;47.592;9.600;2023-04-06T15:22:58;14.30;88.90
20370;DHT22;10344;47.592;9.600;2023-04-06T15:25:24;14.70;87.10
20370;DHT22;10344;47.592;9.600;2023-04-06T15:27:53;15.10;88.60
20370;DHT22;10344;47.592;9.600;2023-04-06T15:30:19;15.60;87.00
20370;DHT22;10344;47.592;9.600;2023-04-06T15:32:53;15.80;87.00
20370;DHT22;10344;47.592;9.600;2023-04-06T15:35:25;15.70;88.90
20370;DHT22;10344;47.592;9.600;2023-04-06T15:37:51;15.70;87.50
20370;DHT22;10344;47.592;9.600;2023-04-06T15:40:19;15.30;87.90
20370;DHT22;10344;47.592;9.600;2023-04-06T15:42:45;15.30;87.60
20370;DHT22;10344;47.592;9.600;2023-04-06T15:45:17;15.00;89.80
20370;DHT22;10344;47.592;9.600;2023-04-06T15:47:49;14.60;89.20
20370;DHT22;10344;47.592;9.600;2023-04-06T15:50:14;14.10;85.80
20370;DHT22;10344;47.592;9.600;2023-04-06T15:52:40;13.70;90.00
20370;DHT22;10344;47.592;9.600;2023-04-06T15:55:07;13.50;92.20
20370;DHT22;10344;47.592;9.600;2023-04-06T15:57:33;13.20;92.80
20370;DHT22;10344;47.592;9.600;2023-04-06T15:59:59;13.20;92.80
20370;DHT22;10344;47.592;9.600;2023-04-06T16:02:26;13.30;93.40
20370;DHT22;10344;47.592;9.600;2023-04-06T16:04:55;13.30;94.20
20370;DHT22;10344;47.592;9.600;2023-04-06T16:07:22;13.00;92.70
20370;DHT22;10344;47.592;9.600;2023-04-06T16:09:48;12.80;93.60
20370;DHT22;10344;47.592;9.600;2023-04-06T16:12:14;12.50;92.10
20370;DHT22;10344;47.592;9.600;2023-04-06T16:14:42;12.40;91.80
20370;DHT22;10344;47.592;9.600;2023-04-06T16:17:08;12.20;92.30
20370;DHT22;10344;47.592;9.600;2023-04-06T16:19:35;12.10;92.10
20370;DHT22;10344;47.592;9.600;2023-04-06T16:22:03;12.00;92.80
20370;DHT22;10344;47.592;9.600;2023-04-06T16:24:28;11.90;93.50
20370;DHT22;10344;47.592;9.600;2023-04-06T16:26:54;11.90;93.40
20370;DHT22;10344;47.592;9.600;2023-04-06T16:29:21;11.80;93.30
20370;DHT22;10344;47.592;9.600;2023-04-06T16:31:56;11.80;92.60
20370;DHT22;10344;47.592;9.600;2023-04-06T16:34:22;11.80;91.30
20370;DHT22;10344;47.592;9.600;2023-04-06T16:36:48;11.70;91.10
20370;DHT22;10344;47.592;9.600;2023-04-06T16:39:13;11.80;90.80
20370;DHT22;10344;47.592;9.600;2023-04-06T16:41:41;11.70;90.30
20370;DHT22;10344;47.592;9.600;2023-04-06T16:44:10;11.70;91.00
20370;DHT22;10344;47.592;9.600;2023-04-06T16:46:38;11.70;89.50
20370;DHT22;10344;47.592;9.600;2023-04-06T16:49:08;11.80;88.80
20370;DHT22;10344;47.592;9.600;2023-04-06T16:51:36;11.70;89.90
20370;DHT22;10344;47.592;9.600;2023-04-06T16:54:02;11.60;88.10
20370;DHT22;10344;47.592;9.600;2023-04-06T16:56:34;11.60;88.40
20370;DHT22;10344;47.592;9.600;2023-04-06T16:59:02;11.50;89.70
20370;DHT22;10344;47.592;9.600;2023-04-06T17:01:33;11.40;88.40
20370;DHT22;10344;47.592;9.600;2023-04-06T17:03:58;11.40;86.40
20370;DHT22;10344;47.592;9.600;2023-04-06T17:06:27;11.40;86.60
20370;DHT22;10344;47.592;9.600;2023-04-06T17:08:53;11.30;86.10
20370;DHT22;10344;47.592;9.600;2023-04-06T17:11:21;11.20;87.30
20370;DHT22;10344;47.592;9.600;2023-04-06T17:13:50;11.20;87.20
20370;DHT22;10344;47.592;9.600;2023-04-06T17:16:16;11.20;90.10
20370;DHT22;10344;47.592;9.600;2023-04-06T17:18:45;11.10;89.80
20370;DHT22;10344;47.592;9.600;2023-04-06T17:21:16;11.00;89.30
20370;DHT22;10344;47.592;9.600;2023-04-06T17:23:46;11.00;90.30
20370;DHT22;10344;47.592;9.600;2023-04-06T17:26:11;10.90;91.20
20370;DHT22;10344;47.592;9.600;2023-04-06T17:28:42;10.90;91.10
20370;DHT22;10344;47.592;9.600;2023-04-06T17:31:09;10.90;91.30
20370;DHT22;10344;47.592;9.600;2023-04-06T17:33:36;10.80;91.00
20370;DHT22;10344;47.592;9.600;2023-04-06T17:36:04;10.70;91.50
20370;DHT22;10344;47.592;9.600;2023-04-06T17:38:30;10.70;91.50
20370;DHT22;10344;47.592;9.600;2023-04-06T17:40:56;10.50;92.20
20370;DHT22;10344;47.592;9.600;2023-04-06T17:43:22;10.50;92.70
20370;DHT22;10344;47.592;9.600;2023-04-06T17:45:49;10.40;92.80
20370;DHT22;10344;47.592;9.600;2023-04-06T17:48:21;10.40;91.50
20370;DHT22;10344;47.592;9.600;2023-04-06T17:50:47;10.40;92.10
20370;DHT22;10344;47.592;9.600;2023-04-06T17:53:13;10.30;92.60
20370;DHT22;10344;47.592;9.600;2023-04-06T17:55:38;10.30;91.50
20370;DHT22;10344;47.592;9.600;2023-04-06T17:58:04;10.30;92.20
20370;DHT22;10344;47.592;9.600;2023-04-06T18:00:32;10.30;91.90
20370;DHT22;10344;47.592;9.600;2023-04-06T18:03:03;10.20;93.30
20370;DHT22;10344;47.592;9.600;2023-04-06T18:05:29;10.20;93.60
20370;DHT22;10344;47.592;9.600;2023-04-06T18:07:55;10.10;94.90
20370;DHT22;10344;47.592;9.600;2023-04-06T18:10:21;10.00;94.30
20370;DHT22;10344;47.592;9.600;2023-04-06T18:12:47;9.90;95.10
20370;DHT22;10344;47.592;9.600;2023-04-06T18:15:16;9.80;95.40
20370;DHT22;10344;47.592;9.600;2023-04-06T18:17:44;9.80;96.10
20370;DHT22;10344;47.592;9.600;2023-04-06T18:20:11;9.80;96.10
20370;DHT22;10344;47.592;9.600;2023-04-06T18:22:42;9.90;95.50
20370;DHT22;10344;47.592;9.600;2023-04-06T18:25:08;9.70;95.60
20370;DHT22;10344;47.592;9.600;2023-04-06T18:27:38;9.60;95.20
20370;DHT22;10344;47.592;9.600;2023-04-06T18:30:04;9.60;95.10
20370;DHT22;10344;47.592;9.600;2023-04-06T18:32:33;9.60;96.70
20370;DHT22;10344;47.592;9.600;2023-04-06T18:35:01;9.50;97.50
20370;DHT22;10344;47.592;9.600;2023-04-06T18:37:27;9.50;97.30
20370;DHT22;10344;47.592;9.600;2023-04-06T18:39:52;9.50;96.40
20370;DHT22;10344;47.592;9.600;2023-04-06T18:42:21;9.50;97.70
20370;DHT22;10344;47.592;9.600;2023-04-06T18:44:54;9.40;96.90
20370;DHT22;10344;47.592;9.600;2023-04-06T18:47:22;9.50;96.30
20370;DHT22;10344;47.592;9.600;2023-04-06T18:49:55;9.40;96.90
20370;DHT22;10344;47.592;9.600;2023-04-06T18:52:23;9.30;96.70
20370;DHT22;10344;47.592;9.600;2023-04-06T18:54:50;9.30;97.10
20370;DHT22;10344;47.592;9.600;2023-04-06T18:57:16;9.30;98.00
20370;DHT22;10344;47.592;9.600;2023-04-06T18:59:42;9.30;98.70
20370;DHT22;10344;47.592;9.600;2023-04-06T19:02:13;9.30;97.60
20370;DHT22;10344;47.592;9.600;2023-04-06T19:04:39;9.30;97.60
20370;DHT22;10344;47.592;9.600;2023-04-06T19:07:07;9.30;97.80
20370;DHT22;10344;47.592;9.600;2023-04-06T19:09:35;9.20;98.20
20370;DHT22;10344;47.592;9.600;2023-04-06T19:12:01;9.20;98.40
20370;DHT22;10344;47.592;9.600;2023-04-06T19:14:33;9.20;98.70
20370;DHT22;10344;47.592;9.600;2023-04-06T19:17:02;9.20;97.70
20370;DHT22;10344;47.592;9.600;2023-04-06T19:19:32;9.20;98.10
20370;DHT22;10344;47.592;9.600;2023-04-06T19:21:58;9.20;98.20
20370;DHT22;10344;47.592;9.600;2023-04-06T19:24:33;9.20;98.50
20370;DHT22;10344;47.592;9.600;2023-04-06T19:26:59;9.20;98.70
20370;DHT22;10344;47.592;9.600;2023-04-06T19:29:25;9.20;98.30
20370;DHT22;10344;47.592;9.600;2023-04-06T19:31:51;9.40;98.00
20370;DHT22;10344;47.592;9.600;2023-04-06T19:34:23;9.30;97.90
20370;DHT22;10344;47.592;9.600;2023-04-06T19:36:49;9.20;98.40
20370;DHT22;10344;47.592;9.600;2023-04-06T19:39:14;9.20;99.30
20370;DHT22;10344;47.592;9.600;2023-04-06T19:41:43;9.30;99.40
20370;DHT22;10344;47.592;9.600;2023-04-06T19:44:14;9.30;99.70
20370;DHT22;10344;47.592;9.600;2023-04-06T19:46:39;9.30;99.50
20370;DHT22;10344;47.592;9.600;2023-04-06T19:49:06;9.40;99.90
20370;DHT22;10344;47.592;9.600;2023-04-06T19:51:35;9.40;99.90
20370;DHT22;10344;47.592;9.600;2023-04-06T19:54:00;9.60;99.90
20370;DHT22;10344;47.592;9.600;2023-04-06T19:56:31;9.60;98.40
20370;DHT22;10344;47.592;9.600;2023-04-06T19:58:59;9.60;99.00
20370;DHT22;10344;47.592;9.600;2023-04-06T20:01:32;9.60;98.20
20370;DHT22;10344;47.592;9.600;2023-04-06T20:03:58;9.80;95.80
20370;DHT22;10344;47.592;9.600;2023-04-06T20:06:24;9.80;95.50
20370;DHT22;10344;47.592;9.600;2023-04-06T20:08:50;9.70;96.00
20370;DHT22;10344;47.592;9.600;2023-04-06T20:11:16;9.60;96.10
20370;DHT22;10344;47.592;9.600;2023-04-06T20:13:45;9.60;95.20
20370;DHT22;10344;47.592;9.600;2023-04-06T20:16:13;9.60;94.60
20370;DHT22;10344;47.592;9.600;2023-04-06T20:18:41;9.70;94.30
20370;DHT22;10344;47.592;9.600;2023-04-06T20:21:10;9.70;94.40
20370;DHT22;10344;47.592;9.600;2023-04-06T20:23:37;9.70;94.00
20370;DHT22;10344;47.592;9.600;2023-04-06T20:26:03;9.60;94.80
20370;DHT22;10344;47.592;9.600;2023-04-06T20:28:34;9.70;92.40
20370;DHT22;10344;47.592;9.600;2023-04-06T20:31:00;9.90;93.20
20370;DHT22;10344;47.592;9.600;2023-04-06T20:33:27;9.90;94.30
20370;DHT22;10344;47.592;9.600;2023-04-06T20:35:58;9.90;95.10
20370;DHT22;10344;47.592;9.600;2023-04-06T20:38:24;9.80;95.80
20370;DHT22;10344;47.592;9.600;2023-04-06T20:40:51;9.90;94.40
20370;DHT22;10344;47.592;9.600;2023-04-06T20:43:17;10.00;93.70
20370;DHT22;10344;47.592;9.600;2023-04-06T20:45:53;10.10;95.20
20370;DHT22;10344;47.592;9.600;2023-04-06T20:48:24;10.00;94.60
20370;DHT22;10344;47.592;9.600;2023-04-06T20:50:50;9.90;95.40
20370;DHT22;10344;47.592;9.600;2023-04-06T20:53:16;10.00;95.60
20370;DHT22;10344;47.592;9.600;2023-04-06T20:55:45;10.00;95.40
20370;DHT22;10344;47.592;9.600;2023-04-06T20:58:15;9.90;96.00
20370;DHT22;10344;47.592;9.600;2023-04-06T21:00:52;10.00;94.80
20370;DHT22;10344;47.592;9.600;2023-04-06T21:03:22;10.10;94.30
20370;DHT22;10344;47.592;9.600;2023-04-06T21:05:57;10.20;94.60
20370;DHT22;10344;47.592;9.600;2023-04-06T21:08:23;10.20;94.40
20370;DHT22;10344;47.592;9.600;2023-04-06T21:10:48;10.10;94.70
20370;DHT22;10344;47.592;9.600;2023-04-06T21:13:14;10.10;95.10
20370;DHT22;10344;47.592;9.600;2023-04-06T21:15:40;9.90;96.40
20370;DHT22;10344;47.592;9.600;2023-04-06T21:18:11;9.80;96.90
20370;DHT22;10344;47.592;9.600;2023-04-06T21:20:37;9.90;97.20
20370;DHT22;10344;47.592;9.600;2023-04-06T21:23:12;9.80;97.80
20370;DHT22;10344;47.592;9.600;2023-04-06T21:25:40;9.70;98.10
20370;DHT22;10344;47.592;9.600;2023-04-06T21:28:08;9.70;98.20